createdAt,value
2022-07-29T00:04:21.673Z,21.17
2022-07-29T00:09:23.685Z,21.18
2022-07-29T00:14:25.461Z,21.15
2022-07-29T00:19:27.074Z,21.21
2022-07-29T00:24:28.659Z,21.20
2022-07-29T00:29:34.110Z,20.84
2022-07-29T00:34:35.885Z,20.59
2022-07-29T00:39:37.484Z,20.46
2022-07-29T00:44:40.685Z,20.42
2022-07-29T00:49:43.248Z,20.49
2022-07-29T00:54:45.202Z,20.57
2022-07-29T00:59:46.833Z,20.75
2022-07-29T01:04:49.313Z,20.86
2022-07-29T01:09:51.511Z,21.07
2022-07-29T01:14:55.925Z,21.20
2022-07-29T01:20:03.329Z,21.16
2022-07-29T01:25:20.709Z,21.08
2022-07-29T01:30:25.628Z,21.24
2022-07-29T01:35:32.952Z,21.24
2022-07-29T01:40:46.466Z,20.86
2022-07-29T01:45:53.907Z,20.02
2022-07-29T01:51:19.213Z,19.36
2022-07-29T01:56:22.586Z,19.07
2022-07-29T02:01:26.644Z,18.86
2022-07-29T02:06:30.533Z,18.88
2022-07-29T02:11:34.274Z,18.95
2022-07-29T02:16:38.624Z,18.93
2022-07-29T02:21:41.358Z,18.92
2022-07-29T02:26:44.232Z,18.83
2022-07-29T02:31:47.523Z,18.77
2022-07-29T02:36:50.381Z,18.85
2022-07-29T02:41:55.925Z,18.85
2022-07-29T02:47:13.592Z,18.74
2022-07-29T02:52:56.628Z,18.90
2022-07-29T02:58:02.668Z,19.04
2022-07-29T03:03:07.758Z,19.07
2022-07-29T03:08:12.490Z,19.02
2022-07-29T03:13:15.550Z,19.22
2022-07-29T03:18:17.551Z,19.28
2022-07-29T03:23:23.352Z,19.29
2022-07-29T03:28:27.067Z,19.42
2022-07-29T03:33:28.721Z,19.47
2022-07-29T03:38:34.688Z,19.55
2022-07-29T03:43:39.207Z,19.60
2022-07-29T03:48:56.472Z,19.59
2022-07-29T03:53:59.133Z,19.64
2022-07-29T03:59:03.028Z,19.71
2022-07-29T04:04:05.497Z,19.80
2022-07-29T04:09:09.841Z,19.90
2022-07-29T04:14:11.619Z,19.94
2022-07-29T04:19:13.152Z,19.98
2022-07-29T04:24:15.288Z,20.07
2022-07-29T04:29:17.158Z,20.13
2022-07-29T04:34:19.477Z,20.21
2022-07-29T04:39:23.187Z,20.45
2022-07-29T04:44:28.433Z,20.55
2022-07-29T04:49:30.522Z,20.68
2022-07-29T04:54:32.136Z,20.70
2022-07-29T04:59:33.718Z,20.84
2022-07-29T05:04:35.379Z,20.89
2022-07-29T05:09:36.948Z,20.99
2022-07-29T05:14:38.553Z,21.05
2022-07-29T05:19:40.110Z,21.00
2022-07-29T05:24:41.659Z,21.18
2022-07-29T05:29:45.800Z,21.38
2022-07-29T05:34:50.866Z,21.72
2022-07-29T05:39:57.154Z,22.58
2022-07-29T05:45:00.928Z,22.99
2022-07-29T05:50:02.555Z,22.99
2022-07-29T05:55:04.526Z,23.13
2022-07-29T06:00:06.829Z,22.75
2022-07-29T06:05:16.503Z,22.67
2022-07-29T06:10:18.937Z,23.11
2022-07-29T06:15:20.512Z,23.42
2022-07-29T06:20:27.077Z,23.38
2022-07-29T06:25:28.931Z,23.50
2022-07-29T06:30:30.591Z,23.40
2022-07-29T06:35:39.461Z,23.34
2022-07-29T06:40:44.199Z,23.85
2022-07-29T06:45:45.802Z,24.73
2022-07-29T06:50:47.418Z,24.81
2022-07-29T06:55:49.416Z,24.40
2022-07-29T07:00:51.134Z,24.29
2022-07-29T07:05:54.051Z,24.23
2022-07-29T07:10:55.612Z,24.25
2022-07-29T07:15:57.218Z,24.46
2022-07-29T07:20:59.314Z,25.39
2022-07-29T07:26:00.948Z,24.71
2022-07-29T07:31:02.567Z,24.45
2022-07-29T07:36:04.394Z,24.42
2022-07-29T07:41:06.030Z,23.90
2022-07-29T07:46:07.715Z,23.71
2022-07-29T07:51:09.375Z,23.32
2022-07-29T07:56:12.502Z,23.74
2022-07-29T08:01:14.442Z,23.74
2022-07-29T08:06:16.422Z,23.79
2022-07-29T08:11:17.998Z,24.03
2022-07-29T08:16:19.611Z,24.54
2022-07-29T08:21:21.263Z,24.70
2022-07-29T08:26:22.836Z,24.97
2022-07-29T08:31:24.544Z,25.19
2022-07-29T08:36:26.910Z,25.04
2022-07-29T08:41:28.594Z,25.05
2022-07-29T08:46:30.165Z,24.79
2022-07-29T08:51:34.344Z,24.34
2022-07-29T08:56:39.174Z,24.10
2022-07-29T09:01:45.263Z,23.85
2022-07-29T09:06:55.382Z,24.55
2022-07-29T09:11:57.625Z,26.40
2022-07-29T09:16:59.618Z,28.05
2022-07-29T09:22:05.688Z,29.38
2022-07-29T09:27:27.598Z,28.74
2022-07-29T09:32:29.405Z,29.45
2022-07-29T09:37:31.008Z,30.18
2022-07-29T09:42:32.636Z,29.16
2022-07-29T09:47:48.693Z,29.88
2022-07-29T09:52:52.897Z,29.65
2022-07-29T09:57:54.487Z,30.60
2022-07-29T10:03:01.183Z,28.81
2022-07-29T10:08:02.993Z,29.14
2022-07-29T10:13:08.942Z,28.84
2022-07-29T10:18:15.278Z,27.57
2022-07-29T10:23:16.819Z,28.66
2022-07-29T10:28:18.404Z,29.09
2022-07-29T10:33:50.942Z,27.74
2022-07-29T10:38:52.449Z,28.36
2022-07-29T10:43:57.765Z,27.22
2022-07-29T10:49:15.846Z,29.18
2022-07-29T10:54:18.833Z,30.02
2022-07-29T10:59:20.351Z,30.98
2022-07-29T11:04:59.700Z,30.55
2022-07-29T11:10:13.178Z,29.94
2022-07-29T11:15:17.700Z,31.20
2022-07-29T11:20:36.630Z,31.78
2022-07-29T11:25:42.958Z,32.82
2022-07-29T11:30:54.656Z,32.71
2022-07-29T11:36:16.587Z,31.89
2022-07-29T11:41:18.559Z,31.88
2022-07-29T11:46:44.133Z,32.55
2022-07-29T11:51:52.155Z,33.73
2022-07-29T11:56:54.003Z,33.93
2022-07-29T12:02:18.340Z,33.07
2022-07-29T12:07:34.991Z,33.36
2022-07-29T12:12:37.338Z,33.12
2022-07-29T12:17:39.665Z,31.47
2022-07-29T12:22:42.561Z,30.12
2022-07-29T12:27:46.143Z,29.74
2022-07-29T12:32:49.143Z,30.13
2022-07-29T12:37:50.793Z,31.57
2022-07-29T12:43:14.311Z,31.02
2022-07-29T12:48:15.959Z,31.53
2022-07-29T12:53:17.946Z,32.13
2022-07-29T12:58:38.960Z,32.05
2022-07-29T13:04:06.770Z,31.92
2022-07-29T13:09:21.768Z,31.49
2022-07-29T13:14:39.418Z,31.25
2022-07-29T13:19:41.882Z,30.49
2022-07-29T13:24:51.916Z,32.70
2022-07-29T13:29:55.045Z,33.81
2022-07-29T13:34:58.915Z,32.68
2022-07-29T13:40:00.490Z,32.48
2022-07-29T13:45:02.459Z,32.42
2022-07-29T13:50:06.773Z,31.86
2022-07-29T13:55:09.194Z,33.66
2022-07-29T14:00:11.206Z,33.00
2022-07-29T14:05:13.071Z,32.75
2022-07-29T14:10:19.718Z,33.45
2022-07-29T14:15:21.654Z,33.17
2022-07-29T14:20:23.168Z,33.75
2022-07-29T14:25:25.046Z,32.91
2022-07-29T14:30:26.660Z,33.24
2022-07-29T14:35:28.461Z,32.38
2022-07-29T14:40:29.995Z,31.86
2022-07-29T14:45:32.773Z,31.13
2022-07-29T14:50:34.444Z,31.33
2022-07-29T14:55:36.031Z,32.12
2022-07-29T15:00:37.638Z,33.21
2022-07-29T15:05:39.427Z,32.44
2022-07-29T15:10:41.000Z,30.98
2022-07-29T15:15:42.656Z,31.24
2022-07-29T15:20:44.441Z,31.57
2022-07-29T15:25:46.009Z,32.09
2022-07-29T15:30:47.559Z,31.50
2022-07-29T15:35:49.118Z,30.61
2022-07-29T15:40:50.662Z,30.60
2022-07-29T15:45:52.282Z,31.28
2022-07-29T15:50:53.864Z,31.85
2022-07-29T15:55:55.593Z,31.66
2022-07-29T16:00:57.215Z,31.81
2022-07-29T16:05:58.898Z,31.76
2022-07-29T16:11:00.464Z,31.58
2022-07-29T16:16:03.125Z,31.49
2022-07-29T16:21:04.863Z,31.49
2022-07-29T16:26:06.406Z,31.28
2022-07-29T16:31:08.168Z,30.84
2022-07-29T16:36:09.823Z,29.29
2022-07-29T16:41:14.779Z,28.64
2022-07-29T16:46:18.867Z,28.71
2022-07-29T16:51:20.891Z,30.10
2022-07-29T16:56:22.523Z,30.33
2022-07-29T17:01:24.152Z,30.82
2022-07-29T17:06:25.809Z,30.91
2022-07-29T17:11:53.924Z,31.19
2022-07-29T17:16:59.022Z,31.02
2022-07-29T17:22:12.657Z,30.33
2022-07-29T17:27:17.735Z,30.39
2022-07-29T17:32:19.352Z,29.77
2022-07-29T17:37:20.938Z,29.63
2022-07-29T17:42:22.529Z,29.42
2022-07-29T17:47:24.113Z,29.03
2022-07-29T17:52:25.667Z,29.19
2022-07-29T17:57:27.254Z,28.73
2022-07-29T18:02:28.886Z,28.98
2022-07-29T18:07:30.870Z,28.55
2022-07-29T18:12:32.514Z,28.40
2022-07-29T18:17:50.443Z,27.45
2022-07-29T18:22:55.678Z,27.07
2022-07-29T18:28:00.277Z,26.81
2022-07-29T18:33:20.694Z,26.72
2022-07-29T18:38:23.498Z,26.47
2022-07-29T18:43:25.122Z,26.34
2022-07-29T18:48:26.794Z,26.15
2022-07-29T18:53:28.457Z,26.00
2022-07-29T18:58:30.020Z,25.77
2022-07-29T19:03:31.605Z,25.58
2022-07-29T19:08:33.254Z,25.36
2022-07-29T19:13:34.860Z,25.19
2022-07-29T19:18:36.518Z,25.11
2022-07-29T19:24:06.351Z,24.92
2022-07-29T19:28:59.679Z,24.75
2022-07-29T19:34:01.244Z,24.67
2022-07-29T19:39:03.084Z,24.53
2022-07-29T19:44:04.827Z,24.34
2022-07-29T19:49:06.578Z,24.14
2022-07-29T19:54:08.341Z,23.92
2022-07-29T19:59:11.124Z,23.81
2022-07-29T20:04:13.978Z,23.68
2022-07-29T20:09:16.924Z,23.51
2022-07-29T20:14:22.661Z,23.31
2022-07-29T20:19:24.258Z,23.08
2022-07-29T20:24:25.855Z,22.89
2022-07-29T20:29:27.463Z,22.74
2022-07-29T20:34:29.135Z,22.53
2022-07-29T20:39:30.757Z,22.43
2022-07-29T20:44:32.624Z,22.31
2022-07-29T20:49:34.246Z,22.25
2022-07-29T20:54:35.880Z,22.20
2022-07-29T20:59:37.634Z,22.19
2022-07-29T21:04:39.262Z,22.10
2022-07-29T21:09:40.824Z,22.12
2022-07-29T21:14:42.401Z,22.11
2022-07-29T21:19:43.979Z,22.28
2022-07-29T21:24:45.522Z,22.56
2022-07-29T21:29:47.072Z,22.70
2022-07-29T21:34:48.629Z,22.82
2022-07-29T21:39:50.285Z,22.96
2022-07-29T21:44:52.064Z,23.09
2022-07-29T21:49:53.605Z,23.21
2022-07-29T21:54:55.211Z,22.10
2022-07-29T22:00:00.790Z,22.25
2022-07-29T22:05:04.457Z,22.47
2022-07-29T22:10:06.595Z,22.52
2022-07-29T22:15:08.878Z,22.57
2022-07-29T22:20:12.623Z,22.74
2022-07-29T22:25:14.195Z,22.81
2022-07-29T22:30:16.429Z,22.81
2022-07-29T22:35:18.086Z,22.74
2022-07-29T22:40:19.770Z,22.57
2022-07-29T22:45:21.386Z,22.39
2022-07-29T22:50:23.180Z,22.12
2022-07-29T22:55:24.707Z,21.93
2022-07-29T23:00:26.393Z,21.73
2022-07-29T23:05:28.117Z,21.58
2022-07-29T23:10:29.679Z,21.43
2022-07-29T23:15:31.253Z,21.29
2022-07-29T23:20:32.983Z,21.21
2022-07-29T23:25:34.532Z,20.88
2022-07-29T23:30:36.140Z,20.44
2022-07-29T23:35:37.692Z,19.96
2022-07-29T23:40:39.298Z,19.81
2022-07-29T23:45:44.937Z,19.63
2022-07-29T23:50:50.031Z,19.53
2022-07-29T23:55:51.619Z,19.48
